Beldenville, Wisconsin
Current Conditions -  °F | °C
As of 2:10 PM on Wednesday 28 Jan 2015 (Local Time) from KRGK Reporting Station
Haze Haze  
Wind Chill: 19°   Ceiling: 1000
Heat Index: 30°   Visibility: 4mi
Dew Point: 27°   Wind: 15mph
Humidity: 86%   Direction: 130°SE
Pressure: 29.84"   Gusts: NA
Location:  44.77°N, 92.51°W
Report Text: KRGK 282010Z AUTO 13013KT 4SM BR OVC010 M01/M03 A2984 RMK AO2
Loading
Personal Weather Stations






























Interactive Weather Map New forecast layout! Learn more

10-Day Weather Forecast

Advertisements
Track Severe Weather on mobile